sensor_id;sensor_type;location;lat;lon;timestamp;pressure;altitude;pressure_sealevel;temperature;humidity
78892;BME280;68368;51.728;5.248;2024-01-16T00:01:24;100961.45;;;-0.72;100.00
78892;BME280;68368;51.728;5.248;2024-01-16T00:03:27;100963.82;;;-0.74;100.00
78892;BME280;68368;51.728;5.248;2024-01-16T00:05:31;100965.39;;;-0.74;100.00
78892;BME280;68368;51.728;5.248;2024-01-16T00:07:34;100965.71;;;-0.75;100.00
78892;BME280;68368;51.728;5.248;2024-01-16T00:09:39;100969.73;;;-0.75;100.00
78892;BME280;68368;51.728;5.248;2024-01-16T00:11:42;100969.05;;;-0.74;100.00
78892;BME280;68368;51.728;5.248;2024-01-16T00:13:46;100970.64;;;-0.74;100.00
78892;BME280;68368;51.728;5.248;2024-01-16T00:15:48;100971.06;;;-0.72;100.00
78892;BME280;68368;51.728;5.248;2024-01-16T00:17:51;100969.73;;;-0.69;100.00
78892;BME280;68368;51.728;5.248;2024-01-16T00:19:57;100971.23;;;-0.66;100.00
78892;BME280;68368;51.728;5.248;2024-01-16T00:22:02;100967.27;;;-0.65;100.00
78892;BME280;68368;51.728;5.248;2024-01-16T00:24:06;100973.95;;;-0.64;100.00
78892;BME280;68368;51.728;5.248;2024-01-16T00:26:20;100978.91;;;-0.61;100.00
78892;BME280;68368;51.728;5.248;2024-01-16T00:28:23;100980.59;;;-0.58;100.00
78892;BME280;68368;51.728;5.248;2024-01-16T00:30:35;100986.66;;;-0.55;100.00
78892;BME280;68368;51.728;5.248;2024-01-16T00:32:41;100986.92;;;-0.53;100.00
78892;BME280;68368;51.728;5.248;2024-01-16T00:34:48;100985.67;;;-0.49;100.00
78892;BME280;68368;51.728;5.248;2024-01-16T00:36:50;100983.84;;;-0.47;100.00
78892;BME280;68368;51.728;5.248;2024-01-16T00:38:53;100988.30;;;-0.43;100.00
78892;BME280;68368;51.728;5.248;2024-01-16T00:40:56;100986.26;;;-0.42;100.00
78892;BME280;68368;51.728;5.248;2024-01-16T00:43:02;100986.61;;;-0.42;100.00
78892;BME280;68368;51.728;5.248;2024-01-16T00:45:06;100984.70;;;-0.42;100.00
78892;BME280;68368;51.728;5.248;2024-01-16T00:47:10;100983.73;;;-0.44;100.00
78892;BME280;68368;51.728;5.248;2024-01-16T00:49:13;100983.80;;;-0.47;100.00
78892;BME280;68368;51.728;5.248;2024-01-16T00:51:16;100985.58;;;-0.51;100.00
78892;BME280;68368;51.728;5.248;2024-01-16T00:53:20;100991.40;;;-0.54;100.00
78892;BME280;68368;51.728;5.248;2024-01-16T00:55:23;100985.64;;;-0.59;100.00
78892;BME280;68368;51.728;5.248;2024-01-16T00:57:26;100993.88;;;-0.62;100.00
78892;BME280;68368;51.728;5.248;2024-01-16T00:59:29;100992.91;;;-0.65;100.00
78892;BME280;68368;51.728;5.248;2024-01-16T01:01:32;100996.11;;;-0.68;100.00
78892;BME280;68368;51.728;5.248;2024-01-16T01:03:35;100999.15;;;-0.71;100.00
78892;BME280;68368;51.728;5.248;2024-01-16T01:05:38;100995.94;;;-0.73;100.00
78892;BME280;68368;51.728;5.248;2024-01-16T01:07:45;100996.95;;;-0.74;100.00
78892;BME280;68368;51.728;5.248;2024-01-16T01:09:48;100995.44;;;-0.72;100.00
78892;BME280;68368;51.728;5.248;2024-01-16T01:11:54;100994.52;;;-0.69;100.00
78892;BME280;68368;51.728;5.248;2024-01-16T01:13:58;100993.21;;;-0.66;100.00
78892;BME280;68368;51.728;5.248;2024-01-16T01:16:07;100996.63;;;-0.64;100.00
78892;BME280;68368;51.728;5.248;2024-01-16T01:18:11;100993.02;;;-0.61;100.00
78892;BME280;68368;51.728;5.248;2024-01-16T01:20:15;100991.88;;;-0.60;100.00
78892;BME280;68368;51.728;5.248;2024-01-16T01:22:18;100989.82;;;-0.59;100.00
78892;BME280;68368;51.728;5.248;2024-01-16T01:24:24;100993.58;;;-0.57;100.00
78892;BME280;68368;51.728;5.248;2024-01-16T01:26:27;100993.79;;;-0.56;100.00
78892;BME280;68368;51.728;5.248;2024-01-16T01:28:30;100990.45;;;-0.56;100.00
78892;BME280;68368;51.728;5.248;2024-01-16T01:30:33;100998.79;;;-0.57;100.00
78892;BME280;68368;51.728;5.248;2024-01-16T01:32:37;100995.79;;;-0.58;100.00
78892;BME280;68368;51.728;5.248;2024-01-16T01:34:41;100995.75;;;-0.59;100.00
78892;BME280;68368;51.728;5.248;2024-01-16T01:36:45;100994.83;;;-0.60;100.00
78892;BME280;68368;51.728;5.248;2024-01-16T01:38:48;100990.02;;;-0.63;100.00
78892;BME280;68368;51.728;5.248;2024-01-16T01:40:54;100990.71;;;-0.64;100.00
78892;BME280;68368;51.728;5.248;2024-01-16T01:42:57;100987.22;;;-0.63;100.00
78892;BME280;68368;51.728;5.248;2024-01-16T01:45:06;100987.89;;;-0.64;100.00
78892;BME280;68368;51.728;5.248;2024-01-16T01:47:14;100989.41;;;-0.65;100.00
78892;BME280;68368;51.728;5.248;2024-01-16T01:49:20;100993.25;;;-0.65;100.00
78892;BME280;68368;51.728;5.248;2024-01-16T01:51:29;100993.20;;;-0.66;100.00
78892;BME280;68368;51.728;5.248;2024-01-16T01:53:34;100992.46;;;-0.68;100.00
78892;BME280;68368;51.728;5.248;2024-01-16T01:55:41;100993.65;;;-0.69;100.00
78892;BME280;68368;51.728;5.248;2024-01-16T01:57:49;100997.30;;;-0.69;100.00
78892;BME280;68368;51.728;5.248;2024-01-16T01:59:52;101003.02;;;-0.70;100.00
78892;BME280;68368;51.728;5.248;2024-01-16T02:01:56;101001.13;;;-0.69;100.00
78892;BME280;68368;51.728;5.248;2024-01-16T02:04:00;101000.44;;;-0.69;100.00
78892;BME280;68368;51.728;5.248;2024-01-16T02:06:08;101002.13;;;-0.70;100.00
78892;BME280;68368;51.728;5.248;2024-01-16T02:08:12;101006.11;;;-0.71;100.00
78892;BME280;68368;51.728;5.248;2024-01-16T02:10:16;101003.47;;;-0.72;100.00
78892;BME280;68368;51.728;5.248;2024-01-16T02:12:20;101009.67;;;-0.74;100.00
78892;BME280;68368;51.728;5.248;2024-01-16T02:14:25;101005.43;;;-0.75;100.00
78892;BME280;68368;51.728;5.248;2024-01-16T02:16:34;101007.46;;;-0.77;100.00
78892;BME280;68368;51.728;5.248;2024-01-16T02:18:39;101012.39;;;-0.76;100.00
78892;BME280;68368;51.728;5.248;2024-01-16T02:20:48;101012.15;;;-0.77;100.00
78892;BME280;68368;51.728;5.248;2024-01-16T02:22:54;101008.08;;;-0.79;100.00
78892;BME280;68368;51.728;5.248;2024-01-16T02:24:59;101013.61;;;-0.80;100.00
78892;BME280;68368;51.728;5.248;2024-01-16T02:27:07;101016.15;;;-0.82;100.00
78892;BME280;68368;51.728;5.248;2024-01-16T02:29:11;101011.77;;;-0.83;100.00
78892;BME280;68368;51.728;5.248;2024-01-16T02:31:16;101016.09;;;-0.83;100.00
78892;BME280;68368;51.728;5.248;2024-01-16T02:33:19;101022.52;;;-0.80;100.00
78892;BME280;68368;51.728;5.248;2024-01-16T02:35:22;101025.05;;;-0.73;100.00
78892;BME280;68368;51.728;5.248;2024-01-16T02:37:25;101029.33;;;-0.65;100.00
78892;BME280;68368;51.728;5.248;2024-01-16T02:39:31;101029.77;;;-0.58;100.00
78892;BME280;68368;51.728;5.248;2024-01-16T02:41:35;101027.23;;;-0.52;100.00
78892;BME280;68368;51.728;5.248;2024-01-16T02:43:42;101031.12;;;-0.46;100.00
78892;BME280;68368;51.728;5.248;2024-01-16T02:45:45;101028.52;;;-0.40;100.00
78892;BME280;68368;51.728;5.248;2024-01-16T02:47:47;101027.80;;;-0.36;100.00
78892;BME280;68368;51.728;5.248;2024-01-16T02:49:50;101022.00;;;-0.33;100.00
78892;BME280;68368;51.728;5.248;2024-01-16T02:51:55;101017.59;;;-0.30;100.00
78892;BME280;68368;51.728;5.248;2024-01-16T02:53:59;101011.73;;;-0.28;100.00
78892;BME280;68368;51.728;5.248;2024-01-16T02:56:04;101012.42;;;-0.28;100.00
78892;BME280;68368;51.728;5.248;2024-01-16T02:58:22;101016.95;;;-0.29;100.00
78892;BME280;68368;51.728;5.248;2024-01-16T03:00:25;101018.45;;;-0.30;100.00
78892;BME280;68368;51.728;5.248;2024-01-16T03:02:31;101020.45;;;-0.32;100.00
78892;BME280;68368;51.728;5.248;2024-01-16T03:04:35;101014.63;;;-0.35;100.00
78892;BME280;68368;51.728;5.248;2024-01-16T03:06:38;101015.11;;;-0.35;100.00
78892;BME280;68368;51.728;5.248;2024-01-16T03:08:43;101020.95;;;-0.38;100.00
78892;BME280;68368;51.728;5.248;2024-01-16T03:10:46;101034.86;;;-0.39;100.00
78892;BME280;68368;51.728;5.248;2024-01-16T03:12:50;101029.77;;;-0.40;100.00
78892;BME280;68368;51.728;5.248;2024-01-16T03:14:54;101028.73;;;-0.40;100.00
78892;BME280;68368;51.728;5.248;2024-01-16T03:17:01;101024.48;;;-0.41;100.00
78892;BME280;68368;51.728;5.248;2024-01-16T03:19:05;101023.08;;;-0.41;100.00
78892;BME280;68368;51.728;5.248;2024-01-16T03:21:14;101022.02;;;-0.42;100.00
78892;BME280;68368;51.728;5.248;2024-01-16T03:23:19;101027.06;;;-0.42;100.00
78892;BME280;68368;51.728;5.248;2024-01-16T03:25:22;101022.49;;;-0.43;100.00
78892;BME280;68368;51.728;5.248;2024-01-16T03:27:25;101019.20;;;-0.43;100.00
78892;BME280;68368;51.728;5.248;2024-01-16T03:29:29;101021.46;;;-0.43;100.00
78892;BME280;68368;51.728;5.248;2024-01-16T03:31:33;101017.03;;;-0.45;100.00
78892;BME280;68368;51.728;5.248;2024-01-16T03:33:37;101021.98;;;-0.48;100.00
78892;BME280;68368;51.728;5.248;2024-01-16T03:35:41;101017.00;;;-0.51;100.00
78892;BME280;68368;51.728;5.248;2024-01-16T03:37:52;101011.36;;;-0.52;100.00
78892;BME280;68368;51.728;5.248;2024-01-16T03:39:56;101008.65;;;-0.55;100.00
78892;BME280;68368;51.728;5.248;2024-01-16T03:42:01;101005.45;;;-0.56;100.00
78892;BME280;68368;51.728;5.248;2024-01-16T03:44:07;101003.66;;;-0.57;100.00
78892;BME280;68368;51.728;5.248;2024-01-16T03:46:12;100997.71;;;-0.58;100.00
78892;BME280;68368;51.728;5.248;2024-01-16T03:48:15;101003.42;;;-0.59;100.00
78892;BME280;68368;51.728;5.248;2024-01-16T03:50:19;101005.29;;;-0.61;100.00
78892;BME280;68368;51.728;5.248;2024-01-16T03:52:26;101005.32;;;-0.59;100.00
78892;BME280;68368;51.728;5.248;2024-01-16T03:54:44;101002.42;;;-0.57;100.00
78892;BME280;68368;51.728;5.248;2024-01-16T03:56:47;101010.61;;;-0.53;100.00
78892;BME280;68368;51.728;5.248;2024-01-16T03:58:51;101011.27;;;-0.50;100.00
78892;BME280;68368;51.728;5.248;2024-01-16T04:01:03;101005.98;;;-0.47;100.00
78892;BME280;68368;51.728;5.248;2024-01-16T04:03:10;101006.64;;;-0.43;100.00
78892;BME280;68368;51.728;5.248;2024-01-16T04:05:37;101002.00;;;-0.41;100.00
78892;BME280;68368;51.728;5.248;2024-01-16T04:07:43;100997.88;;;-0.39;100.00
78892;BME280;68368;51.728;5.248;2024-01-16T04:12:11;100997.98;;;-0.36;100.00
78892;BME280;68368;51.728;5.248;2024-01-16T04:14:16;101000.33;;;-0.34;100.00
78892;BME280;68368;51.728;5.248;2024-01-16T04:16:28;100998.98;;;-0.32;100.00
78892;BME280;68368;51.728;5.248;2024-01-16T04:18:40;100999.10;;;-0.29;100.00
78892;BME280;68368;51.728;5.248;2024-01-16T04:20:46;101001.14;;;-0.27;100.00
78892;BME280;68368;51.728;5.248;2024-01-16T04:22:50;100999.84;;;-0.24;100.00
78892;BME280;68368;51.728;5.248;2024-01-16T04:24:56;100997.64;;;-0.22;100.00
78892;BME280;68368;51.728;5.248;2024-01-16T04:27:00;100996.32;;;-0.20;100.00
78892;BME280;68368;51.728;5.248;2024-01-16T04:29:04;100996.52;;;-0.18;100.00
78892;BME280;68368;51.728;5.248;2024-01-16T04:31:07;100995.73;;;-0.17;100.00
78892;BME280;68368;51.728;5.248;2024-01-16T04:33:13;100991.96;;;-0.14;100.00
78892;BME280;68368;51.728;5.248;2024-01-16T04:35:18;100991.85;;;-0.13;100.00
78892;BME280;68368;51.728;5.248;2024-01-16T04:37:35;100998.38;;;-0.11;100.00
78892;BME280;68368;51.728;5.248;2024-01-16T04:48:44;100994.23;;;-0.06;100.00
78892;BME280;68368;51.728;5.248;2024-01-16T04:50:49;100992.50;;;-0.04;100.00
78892;BME280;68368;51.728;5.248;2024-01-16T04:52:56;100985.88;;;-0.04;100.00
78892;BME280;68368;51.728;5.248;2024-01-16T04:55:02;100983.30;;;-0.03;100.00
78892;BME280;68368;51.728;5.248;2024-01-16T04:57:33;100983.88;;;-0.02;100.00
78892;BME280;68368;51.728;5.248;2024-01-16T04:59:37;100982.70;;;-0.00;100.00
78892;BME280;68368;51.728;5.248;2024-01-16T05:01:49;100982.55;;;0.00;100.00
78892;BME280;68368;51.728;5.248;2024-01-16T05:54:42;100929.59;;;-0.52;100.00
78892;BME280;68368;51.728;5.248;2024-01-16T06:42:10;100922.82;;;-0.51;100.00
78892;BME280;68368;51.728;5.248;2024-01-16T06:44:13;100925.77;;;-0.52;100.00
78892;BME280;68368;51.728;5.248;2024-01-16T06:46:18;100926.79;;;-0.52;100.00
78892;BME280;68368;51.728;5.248;2024-01-16T06:48:22;100927.43;;;-0.54;100.00
78892;BME280;68368;51.728;5.248;2024-01-16T06:50:25;100927.41;;;-0.55;100.00
78892;BME280;68368;51.728;5.248;2024-01-16T06:52:28;100928.42;;;-0.55;100.00
78892;BME280;68368;51.728;5.248;2024-01-16T06:54:31;100929.44;;;-0.56;100.00
78892;BME280;68368;51.728;5.248;2024-01-16T06:56:40;100927.83;;;-0.57;100.00
78892;BME280;68368;51.728;5.248;2024-01-16T06:58:44;100929.52;;;-0.58;100.00
78892;BME280;68368;51.728;5.248;2024-01-16T07:00:51;100928.96;;;-0.60;100.00
78892;BME280;68368;51.728;5.248;2024-01-16T07:02:53;100928.77;;;-0.60;100.00
78892;BME280;68368;51.728;5.248;2024-01-16T07:04:56;100928.55;;;-0.61;100.00
78892;BME280;68368;51.728;5.248;2024-01-16T07:07:00;100929.53;;;-0.63;100.00
78892;BME280;68368;51.728;5.248;2024-01-16T07:09:05;100931.80;;;-0.63;100.00
78892;BME280;68368;51.728;5.248;2024-01-16T07:11:10;100929.84;;;-0.64;100.00
78892;BME280;68368;51.728;5.248;2024-01-16T07:13:14;100935.20;;;-0.65;100.00
78892;BME280;68368;51.728;5.248;2024-01-16T07:15:20;100938.30;;;-0.66;100.00
78892;BME280;68368;51.728;5.248;2024-01-16T07:17:23;100936.72;;;-0.66;100.00
78892;BME280;68368;51.728;5.248;2024-01-16T07:19:28;100935.77;;;-0.69;100.00
78892;BME280;68368;51.728;5.248;2024-01-16T07:21:34;100941.45;;;-0.71;100.00
78892;BME280;68368;51.728;5.248;2024-01-16T07:23:40;100937.48;;;-0.74;100.00
78892;BME280;68368;51.728;5.248;2024-01-16T07:25:43;100938.90;;;-0.78;100.00
78892;BME280;68368;51.728;5.248;2024-01-16T07:27:47;100936.88;;;-0.81;100.00
78892;BME280;68368;51.728;5.248;2024-01-16T07:29:54;100939.94;;;-0.83;100.00
78892;BME280;68368;51.728;5.248;2024-01-16T07:32:00;100941.44;;;-0.85;100.00
78892;BME280;68368;51.728;5.248;2024-01-16T07:34:03;100939.52;;;-0.85;100.00
78892;BME280;68368;51.728;5.248;2024-01-16T07:36:14;100943.60;;;-0.83;100.00
78892;BME280;68368;51.728;5.248;2024-01-16T07:38:18;100942.91;;;-0.83;100.00
78892;BME280;68368;51.728;5.248;2024-01-16T07:40:21;100948.66;;;-0.83;100.00
78892;BME280;68368;51.728;5.248;2024-01-16T07:42:24;100948.14;;;-0.83;100.00
78892;BME280;68368;51.728;5.248;2024-01-16T07:44:28;100955.46;;;-0.83;100.00
78892;BME280;68368;51.728;5.248;2024-01-16T07:46:32;100956.50;;;-0.83;100.00
78892;BME280;68368;51.728;5.248;2024-01-16T07:48:37;100957.57;;;-0.82;100.00
78892;BME280;68368;51.728;5.248;2024-01-16T07:51:01;100963.67;;;-0.82;100.00
78892;BME280;68368;51.728;5.248;2024-01-16T07:53:05;100966.65;;;-0.82;100.00
78892;BME280;68368;51.728;5.248;2024-01-16T07:57:46;100967.13;;;-0.83;100.00
78892;BME280;68368;51.728;5.248;2024-01-16T07:59:56;100968.20;;;-0.82;100.00
78892;BME280;68368;51.728;5.248;2024-01-16T08:02:00;100962.66;;;-0.81;100.00
78892;BME280;68368;51.728;5.248;2024-01-16T08:04:03;100963.57;;;-0.81;100.00
78892;BME280;68368;51.728;5.248;2024-01-16T08:06:19;100965.16;;;-0.80;100.00
78892;BME280;68368;51.728;5.248;2024-01-16T08:08:42;100967.84;;;-0.78;100.00
78892;BME280;68368;51.728;5.248;2024-01-16T08:13:29;100968.64;;;-0.75;100.00
78892;BME280;68368;51.728;5.248;2024-01-16T08:15:39;100967.44;;;-0.75;100.00
78892;BME280;68368;51.728;5.248;2024-01-16T08:17:44;100969.21;;;-0.74;100.00
78892;BME280;68368;51.728;5.248;2024-01-16T08:20:12;100965.77;;;-0.73;100.00
78892;BME280;68368;51.728;5.248;2024-01-16T08:22:28;100964.73;;;-0.68;100.00
78892;BME280;68368;51.728;5.248;2024-01-16T08:24:32;100958.24;;;-0.64;100.00
78892;BME280;68368;51.728;5.248;2024-01-16T08:26:44;100957.67;;;-0.61;100.00
78892;BME280;68368;51.728;5.248;2024-01-16T08:28:52;100962.54;;;-0.56;100.00
78892;BME280;68368;51.728;5.248;2024-01-16T08:31:17;100962.54;;;-0.52;100.00
78892;BME280;68368;51.728;5.248;2024-01-16T08:33:21;100955.23;;;-0.47;100.00
78892;BME280;68368;51.728;5.248;2024-01-16T08:35:29;100955.02;;;-0.43;100.00
78892;BME280;68368;51.728;5.248;2024-01-16T08:37:34;100957.40;;;-0.40;100.00
78892;BME280;68368;51.728;5.248;2024-01-16T08:39:40;100959.59;;;-0.37;100.00
78892;BME280;68368;51.728;5.248;2024-01-16T08:41:49;100963.67;;;-0.35;100.00
78892;BME280;68368;51.728;5.248;2024-01-16T08:43:56;100966.34;;;-0.34;100.00
78892;BME280;68368;51.728;5.248;2024-01-16T08:46:03;100960.96;;;-0.33;100.00
78892;BME280;68368;51.728;5.248;2024-01-16T08:48:06;100962.39;;;-0.32;100.00
78892;BME280;68368;51.728;5.248;2024-01-16T08:50:10;100959.31;;;-0.30;100.00
78892;BME280;68368;51.728;5.248;2024-01-16T08:52:13;100959.98;;;-0.27;100.00
78892;BME280;68368;51.728;5.248;2024-01-16T08:54:20;100963.35;;;-0.20;100.00
78892;BME280;68368;51.728;5.248;2024-01-16T08:56:23;100965.84;;;-0.13;100.00
78892;BME280;68368;51.728;5.248;2024-01-16T08:58:30;100967.27;;;-0.08;99.94
78892;BME280;68368;51.728;5.248;2024-01-16T09:00:33;100964.59;;;-0.04;99.81
78892;BME280;68368;51.728;5.248;2024-01-16T09:02:36;100963.45;;;-0.02;99.34
78892;BME280;68368;51.728;5.248;2024-01-16T09:04:39;100963.03;;;0.01;99.24
78892;BME280;68368;51.728;5.248;2024-01-16T09:06:42;100958.61;;;0.05;98.93
78892;BME280;68368;51.728;5.248;2024-01-16T09:08:45;100970.06;;;0.08;98.85
78892;BME280;68368;51.728;5.248;2024-01-16T09:10:48;100971.66;;;0.14;98.84
78892;BME280;68368;51.728;5.248;2024-01-16T09:12:51;100970.65;;;0.19;98.64
78892;BME280;68368;51.728;5.248;2024-01-16T09:14:54;100968.42;;;0.27;98.68
78892;BME280;68368;51.728;5.248;2024-01-16T09:17:01;100967.74;;;0.32;98.39
78892;BME280;68368;51.728;5.248;2024-01-16T09:19:05;100961.98;;;0.37;97.92
78892;BME280;68368;51.728;5.248;2024-01-16T09:21:10;100955.22;;;0.44;97.62
78892;BME280;68368;51.728;5.248;2024-01-16T09:23:13;100958.23;;;0.51;96.85
78892;BME280;68368;51.728;5.248;2024-01-16T09:25:16;100956.04;;;0.58;96.49
78892;BME280;68368;51.728;5.248;2024-01-16T09:27:19;100956.44;;;0.65;96.08
78892;BME280;68368;51.728;5.248;2024-01-16T09:29:22;100953.77;;;0.75;96.00
78892;BME280;68368;51.728;5.248;2024-01-16T09:31:26;100954.19;;;0.83;95.39
78892;BME280;68368;51.728;5.248;2024-01-16T09:33:29;100957.79;;;0.92;95.48
78892;BME280;68368;51.728;5.248;2024-01-16T09:35:48;100955.81;;;1.02;95.69
78892;BME280;68368;51.728;5.248;2024-01-16T09:37:51;100956.39;;;1.10;94.68
78892;BME280;68368;51.728;5.248;2024-01-16T09:39:57;100956.32;;;1.13;94.11
78892;BME280;68368;51.728;5.248;2024-01-16T09:42:03;100962.08;;;1.13;93.32
78892;BME280;68368;51.728;5.248;2024-01-16T09:44:07;100962.40;;;1.11;92.75
78892;BME280;68368;51.728;5.248;2024-01-16T09:46:12;100961.35;;;1.11;92.74
78892;BME280;68368;51.728;5.248;2024-01-16T09:48:17;100962.20;;;1.11;91.80
78892;BME280;68368;51.728;5.248;2024-01-16T09:50:21;100958.16;;;1.10;92.12
78892;BME280;68368;51.728;5.248;2024-01-16T09:52:27;100956.63;;;1.11;91.70
78892;BME280;68368;51.728;5.248;2024-01-16T09:54:42;100956.17;;;1.14;91.59
78892;BME280;68368;51.728;5.248;2024-01-16T09:56:50;100946.20;;;1.20;91.50
78892;BME280;68368;51.728;5.248;2024-01-16T09:59:03;100943.95;;;1.27;90.97
78892;BME280;68368;51.728;5.248;2024-01-16T10:01:07;100946.76;;;1.32;90.53
78892;BME280;68368;51.728;5.248;2024-01-16T10:03:11;100946.42;;;1.39;90.26
78892;BME280;68368;51.728;5.248;2024-01-16T10:05:15;100952.61;;;1.47;89.91
78892;BME280;68368;51.728;5.248;2024-01-16T10:07:23;100949.64;;;1.60;89.47
78892;BME280;68368;51.728;5.248;2024-01-16T10:09:28;100951.56;;;1.72;88.66
78892;BME280;68368;51.728;5.248;2024-01-16T10:11:34;100947.66;;;1.84;88.80
78892;BME280;68368;51.728;5.248;2024-01-16T10:13:41;100943.48;;;1.97;88.32
78892;BME280;68368;51.728;5.248;2024-01-16T10:15:50;100939.80;;;2.11;87.52
78892;BME280;68368;51.728;5.248;2024-01-16T10:17:53;100925.77;;;2.16;86.63
78892;BME280;68368;51.728;5.248;2024-01-16T10:19:58;100927.73;;;2.26;86.50
78892;BME280;68368;51.728;5.248;2024-01-16T10:22:05;100925.20;;;2.36;85.87
78892;BME280;68368;51.728;5.248;2024-01-16T10:24:15;100924.06;;;2.47;85.43
78892;BME280;68368;51.728;5.248;2024-01-16T10:26:18;100926.60;;;2.58;85.39
78892;BME280;68368;51.728;5.248;2024-01-16T10:28:27;100923.90;;;2.70;84.70
78892;BME280;68368;51.728;5.248;2024-01-16T10:30:30;100922.33;;;2.78;83.88
78892;BME280;68368;51.728;5.248;2024-01-16T10:32:38;100915.78;;;2.82;83.78
78892;BME280;68368;51.728;5.248;2024-01-16T10:34:49;100911.65;;;2.86;83.37
78892;BME280;68368;51.728;5.248;2024-01-16T10:37:09;100910.21;;;2.85;83.07
78892;BME280;68368;51.728;5.248;2024-01-16T10:39:15;100906.20;;;2.85;83.54
78892;BME280;68368;51.728;5.248;2024-01-16T10:41:19;100908.96;;;2.92;83.89
78892;BME280;68368;51.728;5.248;2024-01-16T10:43:23;100911.63;;;3.01;83.68
78892;BME280;68368;51.728;5.248;2024-01-16T10:45:29;100914.00;;;3.06;82.80
78892;BME280;68368;51.728;5.248;2024-01-16T10:47:33;100909.89;;;3.10;83.04
78892;BME280;68368;51.728;5.248;2024-01-16T10:49:36;100918.02;;;3.12;82.17
78892;BME280;68368;51.728;5.248;2024-01-16T10:51:39;100917.41;;;3.09;81.47
78892;BME280;68368;51.728;5.248;2024-01-16T10:53:46;100915.58;;;3.05;81.64
78892;BME280;68368;51.728;5.248;2024-01-16T10:55:52;100905.73;;;3.03;81.90
78892;BME280;68368;51.728;5.248;2024-01-16T10:57:56;100901.35;;;3.04;82.20
78892;BME280;68368;51.728;5.248;2024-01-16T11:00:05;100905.59;;;3.06;81.50
78892;BME280;68368;51.728;5.248;2024-01-16T11:02:13;100903.80;;;3.04;81.48
78892;BME280;68368;51.728;5.248;2024-01-16T11:04:18;100897.66;;;3.04;81.45
78892;BME280;68368;51.728;5.248;2024-01-16T11:06:24;100896.96;;;3.05;81.01
78892;BME280;68368;51.728;5.248;2024-01-16T11:08:30;100896.88;;;3.01;80.64
78892;BME280;68368;51.728;5.248;2024-01-16T11:10:43;100898.38;;;2.96;80.73
78892;BME280;68368;51.728;5.248;2024-01-16T11:12:47;100896.72;;;2.93;80.85
78892;BME280;68368;51.728;5.248;2024-01-16T11:14:52;100893.75;;;2.93;81.05
78892;BME280;68368;51.728;5.248;2024-01-16T11:16:57;100897.08;;;2.93;80.61
78892;BME280;68368;51.728;5.248;2024-01-16T11:19:02;100893.15;;;2.90;80.70
78892;BME280;68368;51.728;5.248;2024-01-16T11:21:08;100884.66;;;2.87;80.81
78892;BME280;68368;51.728;5.248;2024-01-16T11:23:13;100875.34;;;2.85;81.00
78892;BME280;68368;51.728;5.248;2024-01-16T11:25:20;100874.84;;;2.85;81.76
78892;BME280;68368;51.728;5.248;2024-01-16T11:27:33;100882.36;;;2.86;81.64
78892;BME280;68368;51.728;5.248;2024-01-16T11:29:37;100878.19;;;2.79;81.14
78892;BME280;68368;51.728;5.248;2024-01-16T11:31:45;100879.70;;;2.76;79.89
78892;BME280;68368;51.728;5.248;2024-01-16T11:33:56;100878.90;;;2.72;80.36
78892;BME280;68368;51.728;5.248;2024-01-16T11:36:01;100879.95;;;2.72;80.57
78892;BME280;68368;51.728;5.248;2024-01-16T11:38:10;100877.45;;;2.70;80.89
78892;BME280;68368;51.728;5.248;2024-01-16T11:40:29;100882.01;;;2.70;80.78
78892;BME280;68368;51.728;5.248;2024-01-16T11:42:41;100880.56;;;2.68;80.43
78892;BME280;68368;51.728;5.248;2024-01-16T11:44:46;100876.33;;;2.66;80.34
78892;BME280;68368;51.728;5.248;2024-01-16T11:47:26;100882.06;;;2.64;80.28
78892;BME280;68368;51.728;5.248;2024-01-16T11:50:27;100879.56;;;2.62;79.55
78892;BME280;68368;51.728;5.248;2024-01-16T13:57:58;100773.52;;;2.29;80.77
78892;BME280;68368;51.728;5.248;2024-01-16T14:06:46;100757.73;;;2.05;80.21
78892;BME280;68368;51.728;5.248;2024-01-16T14:11:59;100759.88;;;1.92;79.78
78892;BME280;68368;51.728;5.248;2024-01-16T14:16:59;100763.82;;;1.81;81.10
78892;BME280;68368;51.728;5.248;2024-01-16T14:19:04;100764.08;;;1.77;80.94
78892;BME280;68368;51.728;5.248;2024-01-16T14:21:07;100766.13;;;1.75;81.01
78892;BME280;68368;51.728;5.248;2024-01-16T14:23:11;100764.24;;;1.70;80.91
78892;BME280;68368;51.728;5.248;2024-01-16T14:25:15;100760.61;;;1.64;80.78
78892;BME280;68368;51.728;5.248;2024-01-16T14:27:26;100758.77;;;1.60;80.98
78892;BME280;68368;51.728;5.248;2024-01-16T14:29:32;100753.77;;;1.56;80.63
78892;BME280;68368;51.728;5.248;2024-01-16T14:31:39;100751.45;;;1.54;80.93
78892;BME280;68368;51.728;5.248;2024-01-16T14:33:50;100746.77;;;1.49;81.23
78892;BME280;68368;51.728;5.248;2024-01-16T14:35:57;100741.09;;;1.46;81.68
78892;BME280;68368;51.728;5.248;2024-01-16T14:38:06;100735.90;;;1.42;81.53
78892;BME280;68368;51.728;5.248;2024-01-16T14:40:10;100731.77;;;1.37;81.59
78892;BME280;68368;51.728;5.248;2024-01-16T14:42:16;100727.89;;;1.35;81.82
78892;BME280;68368;51.728;5.248;2024-01-16T14:44:37;100726.58;;;1.32;81.82
78892;BME280;68368;51.728;5.248;2024-01-16T14:46:41;100725.23;;;1.28;82.32
78892;BME280;68368;51.728;5.248;2024-01-16T14:48:46;100724.08;;;1.24;83.01
78892;BME280;68368;51.728;5.248;2024-01-16T14:50:50;100716.81;;;1.20;82.90
78892;BME280;68368;51.728;5.248;2024-01-16T14:52:56;100726.70;;;1.17;82.87
78892;BME280;68368;51.728;5.248;2024-01-16T14:54:59;100725.77;;;1.14;83.06
78892;BME280;68368;51.728;5.248;2024-01-16T14:57:09;100726.60;;;1.13;83.65
78892;BME280;68368;51.728;5.248;2024-01-16T14:59:22;100728.10;;;1.10;83.75
78892;BME280;68368;51.728;5.248;2024-01-16T15:01:26;100721.88;;;1.06;83.97
78892;BME280;68368;51.728;5.248;2024-01-16T15:03:29;100715.43;;;1.00;84.31
78892;BME280;68368;51.728;5.248;2024-01-16T15:05:32;100718.11;;;0.96;84.56
78892;BME280;68368;51.728;5.248;2024-01-16T15:07:35;100714.83;;;0.91;84.87
78892;BME280;68368;51.728;5.248;2024-01-16T15:09:38;100712.11;;;0.87;85.11